KHSB/HSB METAR and TAF weather

Enter ICAO airport designator
Station Type Date Time Source
KHSB METAR 2019/02/21 15:35 UTC NOAA

KHSB 211535Z AUTO 02005KT 10SM CLR 04/01 A3026 RMK AO2 T00410008


Station Type Date Time Source
KHSB Decoded METAR 2019/02/21 15:35 UTC NOAA

Harrisburg, Harrisburg-Raleigh Airport, IL, United States (KHSB) 37-48-41N 088-32-57W
Feb 21, 2019 - 10:35 AM EST / 2019.02.21 1535 UTC
Wind: from the NNE (020 degrees) at 6 MPH (5 KT):0
Visibility: 10 mile(s):0
Sky conditions: clear
Temperature: 39.4 F (4.1 C)
Dew Point: 33.4 F (0.8 C)
Relative Humidity: 79%
Pressure (altimeter): 30.26 in. Hg (1024 hPa)
ob: KHSB 211535Z AUTO 02005KT 10SM CLR 04/01 A3026 RMK AO2 T00410008
cycle: 15

Station Type Date Time Source
KHSB TAF UTC NOAA

Error!


Example: see airport list